createdAt,value
2023-08-17T00:00:15.242Z,18.54
2023-08-17T00:02:24.379Z,18.57
2023-08-17T00:04:32.662Z,18.60
2023-08-17T00:06:40.915Z,18.65
2023-08-17T00:08:49.112Z,18.68
2023-08-17T00:10:59.819Z,18.77
2023-08-17T00:13:08.491Z,18.77
2023-08-17T00:15:16.874Z,18.79
2023-08-17T00:17:25.593Z,18.92
2023-08-17T00:19:34.059Z,18.96
2023-08-17T00:21:42.240Z,18.97
2023-08-17T00:23:50.536Z,18.95
2023-08-17T00:26:01.586Z,18.99
2023-08-17T00:28:10.136Z,19.00
2023-08-17T00:30:18.355Z,19.00
2023-08-17T00:32:26.724Z,19.01
2023-08-17T00:34:34.847Z,19.02
2023-08-17T00:36:44.743Z,19.04
2023-08-17T00:38:53.334Z,19.07
2023-08-17T00:41:04.549Z,19.09
2023-08-17T00:43:12.873Z,19.20
2023-08-17T00:45:21.924Z,19.19
2023-08-17T00:47:30.538Z,19.14
2023-08-17T00:49:39.541Z,19.16
2023-08-17T00:51:47.773Z,19.15
2023-08-17T00:53:58.735Z,19.14
2023-08-17T00:56:10.101Z,19.15
2023-08-17T00:58:19.412Z,19.14
2023-08-17T01:00:29.180Z,19.13
2023-08-17T01:02:39.916Z,19.08
2023-08-17T01:04:48.604Z,19.11
2023-08-17T01:06:56.860Z,19.16
2023-08-17T01:09:05.269Z,19.21
2023-08-17T01:11:24.549Z,19.15
2023-08-17T01:13:42.756Z,19.06
2023-08-17T01:15:58.633Z,19.19
2023-08-17T01:18:20.600Z,19.27
2023-08-17T01:20:29.924Z,19.22
2023-08-17T01:22:41.321Z,19.31
2023-08-17T01:24:58.399Z,19.37
2023-08-17T01:27:07.042Z,19.30
2023-08-17T01:29:15.748Z,19.18
2023-08-17T01:31:33.111Z,19.18
2023-08-17T01:33:47.141Z,19.21
2023-08-17T01:36:05.290Z,19.12
2023-08-17T01:38:18.785Z,18.98
2023-08-17T01:40:31.094Z,18.91
2023-08-17T01:42:40.951Z,18.90
2023-08-17T01:44:49.358Z,18.92
2023-08-17T01:47:00.217Z,18.88
2023-08-17T01:49:08.523Z,18.93
2023-08-17T01:51:22.564Z,18.86
2023-08-17T01:53:30.978Z,18.80
2023-08-17T01:55:42.003Z,18.78
2023-08-17T01:57:50.163Z,18.80
2023-08-17T01:59:59.172Z,18.87
2023-08-17T02:02:09.948Z,18.87
2023-08-17T02:04:19.267Z,18.91
2023-08-17T02:06:27.578Z,18.91
2023-08-17T02:08:38.047Z,18.93
2023-08-17T02:10:48.999Z,18.97
2023-08-17T02:13:02.113Z,19.02
2023-08-17T02:15:17.721Z,19.12
2023-08-17T02:17:26.905Z,19.08
2023-08-17T02:19:35.400Z,19.02
2023-08-17T02:21:43.779Z,18.93
2023-08-17T02:23:52.260Z,18.97
2023-08-17T02:26:03.382Z,18.94
2023-08-17T02:28:13.373Z,18.96
2023-08-17T02:30:21.677Z,19.10
2023-08-17T02:32:29.917Z,19.18
2023-08-17T02:34:38.503Z,19.14
2023-08-17T02:36:47.115Z,19.09
2023-08-17T02:38:55.191Z,19.11
2023-08-17T02:41:06.219Z,19.13
2023-08-17T02:43:14.427Z,19.15
2023-08-17T02:45:22.895Z,19.15
2023-08-17T02:47:31.059Z,19.19
2023-08-17T02:49:39.665Z,19.21
2023-08-17T02:51:47.857Z,19.01
2023-08-17T02:53:56.111Z,19.06
2023-08-17T02:56:07.608Z,19.09
2023-08-17T02:58:15.804Z,19.07
2023-08-17T03:00:24.023Z,19.07
2023-08-17T03:02:32.287Z,18.98
2023-08-17T03:04:40.565Z,19.08
2023-08-17T03:06:48.731Z,19.15
2023-08-17T03:08:57.082Z,19.13
2023-08-17T03:11:08.780Z,19.16
2023-08-17T03:13:16.942Z,19.21
2023-08-17T03:15:25.233Z,19.11
2023-08-17T03:17:34.034Z,19.10
2023-08-17T03:19:39.636Z,19.09
2023-08-17T03:21:48.116Z,19.08
2023-08-17T03:23:56.869Z,18.96
2023-08-17T03:26:07.736Z,18.91
2023-08-17T03:28:16.006Z,19.01
2023-08-17T03:30:24.541Z,19.04
2023-08-17T03:32:33.007Z,19.09
2023-08-17T03:34:43.089Z,19.06
2023-08-17T03:36:53.207Z,19.06
2023-08-17T03:39:01.775Z,19.09
2023-08-17T03:41:13.612Z,19.04
2023-08-17T03:43:22.012Z,19.17
2023-08-17T03:45:30.553Z,19.17
2023-08-17T03:47:38.757Z,19.15
2023-08-17T03:49:47.899Z,19.12
2023-08-17T03:51:55.941Z,19.07
2023-08-17T03:54:04.126Z,19.00
2023-08-17T03:56:16.237Z,19.10
2023-08-17T03:58:24.731Z,19.16
2023-08-17T04:00:32.876Z,19.11
2023-08-17T04:02:41.748Z,19.06
2023-08-17T04:04:52.111Z,19.00
2023-08-17T04:07:00.220Z,19.01
2023-08-17T04:09:09.241Z,19.01
2023-08-17T04:11:23.107Z,19.00
2023-08-17T04:13:32.126Z,18.98
2023-08-17T04:15:40.315Z,19.06
2023-08-17T04:17:48.650Z,19.09
2023-08-17T04:19:56.075Z,18.99
2023-08-17T04:22:04.474Z,19.03
2023-08-17T04:24:13.779Z,19.11
2023-08-17T04:26:25.136Z,19.08
2023-08-17T04:28:33.987Z,19.05
2023-08-17T04:30:42.623Z,19.07
2023-08-17T04:32:54.071Z,19.11
2023-08-17T04:35:02.941Z,19.04
2023-08-17T04:37:11.549Z,18.88
2023-08-17T04:39:20.479Z,18.87
2023-08-17T04:41:32.982Z,18.77
2023-08-17T04:43:44.428Z,18.77
2023-08-17T04:45:54.374Z,18.83
2023-08-17T04:48:02.760Z,18.86
2023-08-17T04:50:17.585Z,18.87
2023-08-17T04:52:26.669Z,18.85
2023-08-17T04:54:35.380Z,18.84
2023-08-17T04:56:46.343Z,18.80
2023-08-17T04:58:55.294Z,18.81
2023-08-17T05:01:06.718Z,18.88
2023-08-17T05:03:24.173Z,18.86
2023-08-17T05:05:40.617Z,19.09
2023-08-17T05:07:51.728Z,19.16
2023-08-17T05:10:00.209Z,19.09
2023-08-17T05:12:12.476Z,19.04
2023-08-17T05:14:20.950Z,18.93
2023-08-17T05:16:29.110Z,18.96
2023-08-17T05:18:38.598Z,19.06
2023-08-17T05:20:47.317Z,19.21
2023-08-17T05:22:56.000Z,19.41
2023-08-17T05:25:06.014Z,19.47
2023-08-17T05:27:19.461Z,19.35
2023-08-17T05:29:28.081Z,19.21
2023-08-17T05:31:36.413Z,19.13
2023-08-17T05:33:44.762Z,19.22
2023-08-17T05:35:58.271Z,19.52
2023-08-17T05:38:08.466Z,19.61
2023-08-17T05:40:19.022Z,19.67
2023-08-17T05:42:30.092Z,19.86
2023-08-17T05:44:38.479Z,19.98
2023-08-17T05:46:46.948Z,20.08
2023-08-17T05:48:55.464Z,19.99
2023-08-17T05:51:03.660Z,19.96
2023-08-17T05:53:11.837Z,19.88
2023-08-17T05:55:20.126Z,19.80
2023-08-17T05:57:30.715Z,19.68
2023-08-17T05:59:42.091Z,19.75
2023-08-17T06:01:50.185Z,19.58
2023-08-17T06:03:55.475Z,19.55
2023-08-17T06:06:03.765Z,19.71
2023-08-17T06:08:12.005Z,19.96
2023-08-17T06:10:20.225Z,19.67
2023-08-17T06:12:31.117Z,19.43
2023-08-17T06:14:39.150Z,19.40
2023-08-17T06:16:47.413Z,19.51
2023-08-17T06:18:55.494Z,19.54
2023-08-17T06:21:03.820Z,19.78
2023-08-17T06:23:12.145Z,20.15
2023-08-17T06:25:20.496Z,20.42
2023-08-17T06:27:31.646Z,20.48
2023-08-17T06:29:39.872Z,20.47
2023-08-17T06:31:48.193Z,20.59
2023-08-17T06:33:56.276Z,20.41
2023-08-17T06:36:04.508Z,20.18
2023-08-17T06:38:13.406Z,20.63
2023-08-17T06:40:21.626Z,20.96
2023-08-17T06:42:32.814Z,21.21
2023-08-17T06:44:42.027Z,21.36
2023-08-17T06:46:50.482Z,21.47
2023-08-17T06:48:58.619Z,21.53
2023-08-17T06:51:06.992Z,21.54
2023-08-17T06:53:15.399Z,21.04
2023-08-17T06:55:23.622Z,21.04
2023-08-17T06:57:34.531Z,20.75
2023-08-17T06:59:42.820Z,20.81
2023-08-17T07:01:51.286Z,20.93
2023-08-17T07:04:00.114Z,21.14
2023-08-17T07:06:08.280Z,20.32
2023-08-17T07:08:16.726Z,20.18
2023-08-17T07:10:25.186Z,20.50
2023-08-17T07:12:36.581Z,20.58
2023-08-17T07:14:44.944Z,20.88
2023-08-17T07:16:53.852Z,21.27
2023-08-17T07:19:02.331Z,21.23
2023-08-17T07:21:10.632Z,21.44
2023-08-17T07:23:18.659Z,21.66
2023-08-17T07:25:27.050Z,21.68
2023-08-17T07:27:38.093Z,22.02
2023-08-17T07:29:46.689Z,21.91
2023-08-17T07:31:55.816Z,21.58
2023-08-17T07:34:04.324Z,21.21
2023-08-17T07:36:13.973Z,21.54
2023-08-17T07:38:23.589Z,21.73
2023-08-17T07:40:31.782Z,21.70
2023-08-17T07:42:40.626Z,21.63
2023-08-17T07:44:49.106Z,21.49
2023-08-17T07:46:57.132Z,21.28
2023-08-17T07:49:08.800Z,21.30
2023-08-17T07:51:26.158Z,21.14
2023-08-17T07:53:34.505Z,20.96
2023-08-17T07:55:42.873Z,20.92
2023-08-17T07:57:54.326Z,21.41
2023-08-17T08:00:02.610Z,21.84
2023-08-17T08:02:16.356Z,21.76
2023-08-17T08:04:24.708Z,22.60
2023-08-17T08:06:34.325Z,23.16
2023-08-17T08:08:42.892Z,23.75
2023-08-17T08:10:51.109Z,24.10
2023-08-17T08:13:02.541Z,24.44
2023-08-17T08:15:12.021Z,23.91
2023-08-17T08:17:20.925Z,24.55
2023-08-17T08:19:28.939Z,24.82
2023-08-17T08:21:37.690Z,25.21
2023-08-17T08:23:45.938Z,25.36
2023-08-17T08:25:54.072Z,25.79
2023-08-17T08:28:04.700Z,25.58
2023-08-17T08:30:13.174Z,24.23
2023-08-17T08:32:21.426Z,23.52
2023-08-17T08:34:29.384Z,24.01
2023-08-17T08:36:40.176Z,23.64
2023-08-17T08:38:48.313Z,23.28
2023-08-17T08:40:56.447Z,23.18
2023-08-17T08:43:07.717Z,23.03
2023-08-17T08:45:15.894Z,22.93
2023-08-17T08:47:26.048Z,23.01
2023-08-17T08:49:41.406Z,23.61
2023-08-17T08:51:54.802Z,23.12
2023-08-17T08:54:09.369Z,23.02
2023-08-17T08:56:20.252Z,22.45
2023-08-17T08:58:33.658Z,22.54
2023-08-17T09:00:40.031Z,22.58
2023-08-17T09:02:48.497Z,22.52
2023-08-17T09:04:57.102Z,22.37
2023-08-17T09:07:07.542Z,22.44
2023-08-17T09:09:19.228Z,22.70
2023-08-17T09:11:29.675Z,22.79
2023-08-17T09:13:40.257Z,22.76
2023-08-17T09:15:48.359Z,23.05
2023-08-17T09:17:56.727Z,23.16
2023-08-17T09:20:04.975Z,23.06
2023-08-17T09:22:12.976Z,23.08
2023-08-17T09:24:21.043Z,23.22
2023-08-17T09:26:29.569Z,23.32
2023-08-17T09:28:43.390Z,23.46
2023-08-17T09:30:56.679Z,23.76
2023-08-17T09:33:06.529Z,24.40
2023-08-17T09:35:14.652Z,25.19
2023-08-17T09:37:22.904Z,26.33
2023-08-17T09:39:32.421Z,28.36
2023-08-17T09:41:44.950Z,28.02
2023-08-17T09:43:55.618Z,28.51
2023-08-17T09:46:04.642Z,28.76
2023-08-17T09:48:19.214Z,29.66
2023-08-17T09:50:27.507Z,30.58
2023-08-17T09:52:35.498Z,28.03
2023-08-17T09:54:46.035Z,29.19
2023-08-17T09:56:55.615Z,29.56
2023-08-17T09:59:08.458Z,30.94
2023-08-17T10:01:17.967Z,31.14
2023-08-17T10:03:27.546Z,31.07
2023-08-17T10:05:45.584Z,29.88
2023-08-17T10:08:05.860Z,30.48
2023-08-17T10:10:14.706Z,29.02
2023-08-17T10:12:30.607Z,29.60
2023-08-17T10:14:48.262Z,30.76
2023-08-17T10:17:03.448Z,31.03
2023-08-17T10:19:25.161Z,32.47
2023-08-17T10:21:41.020Z,33.41
2023-08-17T10:24:08.066Z,33.50
2023-08-17T10:26:25.483Z,32.01
2023-08-17T10:28:36.616Z,32.66
2023-08-17T10:30:49.567Z,32.37
2023-08-17T10:32:58.551Z,32.10
2023-08-17T10:35:11.234Z,32.02
2023-08-17T10:37:21.142Z,31.29
2023-08-17T10:39:30.356Z,31.12
2023-08-17T10:41:50.833Z,31.26
2023-08-17T10:44:00.053Z,31.04
2023-08-17T10:46:23.011Z,31.23
2023-08-17T10:48:37.452Z,30.36
2023-08-17T10:51:03.606Z,31.25
2023-08-17T10:53:14.478Z,31.45
2023-08-17T10:55:41.177Z,29.97
2023-08-17T10:57:49.153Z,30.22
2023-08-17T11:00:28.672Z,29.18
2023-08-17T11:02:37.368Z,29.13
2023-08-17T11:04:58.179Z,30.19
2023-08-17T11:07:06.917Z,31.01
2023-08-17T11:09:20.679Z,30.78
2023-08-17T11:11:28.943Z,30.92
2023-08-17T11:13:39.225Z,29.50
2023-08-17T11:15:46.264Z,29.34
2023-08-17T11:17:57.309Z,29.73
2023-08-17T11:20:05.744Z,29.87
2023-08-17T11:22:14.110Z,30.29
2023-08-17T11:24:20.169Z,30.62
2023-08-17T11:26:28.898Z,30.44
2023-08-17T11:30:49.259Z,29.27
2023-08-17T11:33:01.145Z,28.50
2023-08-17T11:35:10.147Z,28.53
2023-08-17T11:37:21.897Z,29.19
2023-08-17T11:39:30.244Z,29.52
2023-08-17T11:41:39.215Z,29.99
2023-08-17T11:43:49.812Z,30.22
2023-08-17T11:45:56.710Z,30.65
2023-08-17T11:48:08.810Z,31.05
2023-08-17T11:50:21.024Z,31.43
2023-08-17T11:52:30.450Z,31.32
2023-08-17T11:54:38.396Z,31.09
2023-08-17T11:56:46.821Z,31.11
2023-08-17T11:58:55.000Z,31.24
2023-08-17T12:01:03.324Z,31.08
2023-08-17T12:03:17.955Z,30.95
2023-08-17T12:05:29.032Z,30.53
2023-08-17T12:07:37.573Z,30.11
2023-08-17T12:09:45.936Z,29.96
2023-08-17T12:12:02.708Z,29.88
2023-08-17T12:14:15.753Z,29.72
2023-08-17T12:16:25.079Z,29.62
2023-08-17T12:18:36.784Z,29.32
2023-08-17T12:20:46.597Z,29.31
2023-08-17T12:22:54.800Z,29.19
2023-08-17T12:25:02.787Z,29.20
2023-08-17T12:27:10.862Z,29.17
2023-08-17T12:29:19.228Z,28.87
2023-08-17T12:31:27.416Z,28.64
2023-08-17T12:33:38.241Z,28.63
2023-08-17T12:35:46.425Z,28.50
2023-08-17T12:37:55.627Z,28.11
2023-08-17T12:40:05.186Z,27.94
2023-08-17T12:42:13.383Z,28.05
2023-08-17T12:44:21.553Z,27.96
2023-08-17T12:46:34.162Z,27.87
2023-08-17T12:48:45.127Z,27.82
2023-08-17T12:50:53.460Z,27.77
2023-08-17T12:53:01.466Z,27.30
2023-08-17T12:55:10.303Z,26.97
2023-08-17T12:57:18.475Z,26.74
2023-08-17T12:59:26.592Z,26.64
2023-08-17T13:01:34.838Z,26.42
2023-08-17T13:03:45.494Z,26.12
2023-08-17T13:05:54.006Z,25.93
2023-08-17T13:08:02.205Z,25.83
2023-08-17T13:10:11.605Z,25.67
2023-08-17T13:12:19.901Z,25.62
2023-08-17T13:14:25.559Z,25.62
2023-08-17T13:16:33.824Z,25.61
2023-08-17T13:18:42.135Z,25.47
2023-08-17T13:20:53.050Z,25.45
2023-08-17T13:23:01.072Z,25.40
2023-08-17T13:25:09.933Z,25.28
2023-08-17T13:27:18.080Z,25.14
2023-08-17T13:29:23.460Z,25.19
2023-08-17T13:31:31.731Z,25.10
2023-08-17T13:33:37.577Z,24.96
2023-08-17T13:35:45.941Z,24.88
2023-08-17T13:37:58.979Z,24.86
2023-08-17T13:40:08.211Z,24.77
2023-08-17T13:42:16.499Z,24.78
2023-08-17T13:44:24.882Z,24.69
2023-08-17T13:46:33.439Z,24.63
2023-08-17T13:48:43.163Z,24.61
2023-08-17T13:50:51.764Z,24.59
2023-08-17T13:53:03.673Z,24.57
2023-08-17T13:55:12.776Z,24.68
2023-08-17T13:57:20.928Z,24.59
2023-08-17T13:59:31.206Z,24.54
2023-08-17T14:01:39.447Z,24.44
2023-08-17T14:03:47.863Z,24.32
2023-08-17T14:05:56.584Z,24.25
2023-08-17T14:08:09.228Z,24.08
2023-08-17T14:10:32.985Z,24.00
2023-08-17T14:12:45.522Z,24.02
2023-08-17T14:14:53.552Z,23.91
2023-08-17T14:17:01.461Z,24.01
2023-08-17T14:19:09.649Z,23.98
2023-08-17T14:21:17.771Z,23.90
2023-08-17T14:23:28.351Z,23.96
2023-08-17T14:25:36.494Z,24.00
2023-08-17T14:27:44.805Z,24.05
2023-08-17T14:29:53.014Z,24.10
2023-08-17T14:32:01.290Z,24.07
2023-08-17T14:34:09.586Z,24.01
2023-08-17T14:36:20.845Z,24.02
2023-08-17T14:38:32.470Z,24.01
2023-08-17T14:40:42.875Z,24.06
2023-08-17T14:42:54.416Z,24.07
2023-08-17T14:47:15.632Z,24.02
2023-08-17T14:49:29.601Z,23.97
2023-08-17T14:51:42.383Z,23.88
2023-08-17T14:53:50.553Z,23.88
2023-08-17T14:56:01.760Z,23.90
2023-08-17T14:58:10.036Z,23.85
2023-08-17T15:00:18.547Z,23.91
2023-08-17T15:02:26.971Z,23.89
2023-08-17T15:04:39.235Z,23.90
2023-08-17T15:06:47.437Z,23.77
2023-08-17T15:08:58.990Z,23.64
2023-08-17T15:11:07.253Z,23.63
2023-08-17T15:13:15.561Z,23.69
2023-08-17T15:15:24.010Z,23.73
2023-08-17T15:17:32.453Z,23.90
2023-08-17T15:19:41.440Z,23.97
2023-08-17T15:21:49.933Z,24.10
2023-08-17T15:24:02.114Z,24.11
2023-08-17T15:26:12.048Z,24.00
2023-08-17T15:28:20.130Z,24.05
2023-08-17T15:30:28.544Z,24.07
2023-08-17T15:32:36.819Z,24.14
2023-08-17T15:34:45.057Z,24.08
2023-08-17T15:36:53.423Z,24.00
2023-08-17T15:39:04.508Z,24.06
2023-08-17T15:41:12.832Z,23.95
2023-08-17T15:43:20.966Z,24.04
2023-08-17T15:45:29.469Z,24.06
2023-08-17T15:47:38.304Z,24.09
2023-08-17T15:49:46.859Z,24.02
2023-08-17T15:51:54.957Z,24.16
2023-08-17T15:54:05.847Z,24.09
2023-08-17T15:56:14.242Z,24.20
2023-08-17T15:58:22.380Z,24.17
2023-08-17T16:00:30.853Z,24.25
2023-08-17T16:02:39.248Z,24.28
2023-08-17T16:04:47.799Z,24.33
2023-08-17T16:06:53.701Z,24.34
2023-08-17T16:09:01.954Z,24.45
2023-08-17T16:11:13.249Z,24.52
2023-08-17T16:13:21.478Z,24.58
2023-08-17T16:15:29.713Z,24.57
2023-08-17T16:17:37.979Z,24.57
2023-08-17T16:19:46.428Z,24.53
2023-08-17T16:21:54.555Z,24.67
2023-08-17T16:24:02.505Z,24.84
2023-08-17T16:26:13.274Z,24.94
2023-08-17T16:28:21.371Z,25.02
2023-08-17T16:30:29.876Z,25.10
2023-08-17T16:32:38.164Z,25.14
2023-08-17T16:34:48.155Z,25.09
2023-08-17T16:36:56.064Z,24.68
2023-08-17T16:39:04.267Z,24.58
2023-08-17T16:41:14.936Z,24.41
2023-08-17T16:43:23.930Z,24.45
2023-08-17T16:45:32.509Z,24.35
2023-08-17T16:47:40.931Z,24.26
2023-08-17T16:49:49.431Z,24.40
2023-08-17T16:51:57.554Z,24.49
2023-08-17T16:54:05.614Z,24.34
2023-08-17T16:56:16.750Z,24.49
2023-08-17T16:58:24.752Z,24.55
2023-08-17T17:00:33.443Z,24.51
2023-08-17T17:02:38.848Z,24.43
2023-08-17T17:04:48.942Z,24.46
2023-08-17T17:06:56.980Z,24.40
2023-08-17T17:09:06.398Z,24.48
2023-08-17T17:11:17.393Z,24.75
2023-08-17T17:13:25.339Z,24.92
2023-08-17T17:15:33.590Z,25.02
2023-08-17T17:17:41.987Z,25.04
2023-08-17T17:19:50.994Z,24.95
2023-08-17T17:21:59.157Z,25.17
2023-08-17T17:24:08.378Z,25.27
2023-08-17T17:26:21.619Z,25.33
2023-08-17T17:28:31.535Z,25.34
2023-08-17T17:30:39.789Z,25.27
2023-08-17T17:32:48.149Z,25.28
2023-08-17T17:34:57.889Z,25.31
2023-08-17T17:37:06.201Z,24.87
2023-08-17T17:39:14.526Z,24.72
2023-08-17T17:41:25.564Z,24.62
2023-08-17T17:43:33.456Z,24.32
2023-08-17T17:45:41.812Z,24.14
2023-08-17T17:47:49.996Z,24.00
2023-08-17T17:49:58.346Z,23.87
2023-08-17T17:52:06.806Z,23.85
2023-08-17T17:54:14.909Z,23.73
2023-08-17T17:56:40.662Z,23.63
2023-08-17T17:58:48.917Z,23.58
2023-08-17T18:00:57.790Z,23.55
2023-08-17T18:03:12.325Z,23.48
2023-08-17T18:05:23.010Z,23.40
2023-08-17T18:07:32.606Z,23.34
2023-08-17T18:09:41.008Z,23.30
2023-08-17T18:11:51.549Z,23.29
2023-08-17T18:13:57.429Z,23.24
2023-08-17T18:16:05.578Z,23.16
2023-08-17T18:18:13.962Z,23.16
2023-08-17T18:20:19.640Z,23.08
2023-08-17T18:22:28.156Z,23.02
2023-08-17T18:24:33.998Z,23.02
2023-08-17T18:26:42.147Z,22.99
2023-08-17T18:28:52.787Z,22.93
2023-08-17T18:31:01.360Z,22.89
2023-08-17T18:33:09.569Z,22.85
2023-08-17T18:35:15.135Z,22.85
2023-08-17T18:37:23.376Z,22.83
2023-08-17T18:39:31.350Z,22.79
2023-08-17T18:41:39.700Z,22.77
2023-08-17T18:43:47.888Z,22.67
2023-08-17T18:45:59.843Z,22.61
2023-08-17T18:48:09.466Z,22.54
2023-08-17T18:50:17.818Z,22.55
2023-08-17T18:52:28.098Z,22.59
2023-08-17T18:54:37.045Z,22.68
2023-08-17T18:56:45.259Z,22.76
2023-08-17T18:58:53.752Z,22.70
2023-08-17T19:01:04.675Z,22.76
2023-08-17T19:03:12.823Z,22.67
2023-08-17T19:05:21.334Z,22.57
2023-08-17T19:07:30.000Z,22.50
2023-08-17T19:09:38.549Z,22.44
2023-08-17T19:11:46.936Z,22.45
2023-08-17T19:13:55.326Z,22.45
2023-08-17T19:16:06.477Z,22.40
2023-08-17T19:18:15.108Z,22.33
2023-08-17T19:20:23.517Z,22.28
2023-08-17T19:22:31.690Z,22.18
2023-08-17T19:24:39.740Z,22.17
2023-08-17T19:26:47.754Z,22.14
2023-08-17T19:28:55.782Z,22.17
2023-08-17T19:31:06.262Z,22.25
2023-08-17T19:33:14.577Z,22.16
2023-08-17T19:35:20.184Z,22.24
2023-08-17T19:37:31.171Z,22.27
2023-08-17T19:39:41.043Z,22.23
2023-08-17T19:41:49.216Z,22.26
2023-08-17T19:43:57.450Z,22.22
2023-08-17T19:46:08.216Z,22.11
2023-08-17T19:48:16.420Z,22.06
2023-08-17T19:50:24.606Z,22.00
2023-08-17T19:52:32.822Z,22.06
2023-08-17T19:54:43.226Z,22.00
2023-08-17T19:56:53.135Z,21.95
2023-08-17T19:59:02.010Z,21.89
2023-08-17T20:01:13.440Z,21.88
2023-08-17T20:03:29.474Z,21.96
2023-08-17T20:05:38.240Z,21.86
2023-08-17T20:07:47.087Z,21.86
2023-08-17T20:09:58.264Z,21.89
2023-08-17T20:12:08.816Z,21.84
2023-08-17T20:14:18.488Z,21.83
2023-08-17T20:16:34.056Z,21.79
2023-08-17T20:18:42.931Z,21.76
2023-08-17T20:20:57.097Z,21.71
2023-08-17T20:23:05.963Z,21.68
2023-08-17T20:25:15.926Z,21.57
2023-08-17T20:27:24.269Z,21.49
2023-08-17T20:29:32.755Z,21.46
2023-08-17T20:31:56.504Z,21.42
2023-08-17T20:34:06.562Z,21.40
2023-08-17T20:36:16.517Z,21.38
2023-08-17T20:38:29.016Z,21.35
2023-08-17T20:40:47.464Z,21.33
2023-08-17T20:42:55.814Z,21.24
2023-08-17T20:45:03.943Z,21.18
2023-08-17T20:47:15.188Z,21.12
2023-08-17T20:49:23.388Z,21.13
2023-08-17T20:51:31.781Z,21.11
2023-08-17T20:54:06.267Z,21.08
2023-08-17T20:56:14.587Z,20.96
2023-08-17T20:58:32.362Z,20.96
2023-08-17T21:00:41.300Z,20.97
2023-08-17T21:05:31.689Z,20.99
2023-08-17T21:07:43.206Z,21.00
2023-08-17T21:09:51.989Z,20.85
2023-08-17T21:12:03.427Z,20.74
2023-08-17T21:14:25.252Z,20.71
2023-08-17T21:16:45.630Z,20.67
2023-08-17T21:19:04.481Z,20.63
2023-08-17T21:21:13.575Z,20.61
2023-08-17T21:23:25.907Z,20.62
2023-08-17T21:25:38.362Z,20.60
2023-08-17T21:28:05.389Z,20.61
2023-08-17T21:30:23.681Z,20.56
2023-08-17T21:32:31.929Z,20.59
2023-08-17T21:34:45.278Z,20.59
2023-08-17T21:37:13.656Z,20.51
2023-08-17T21:39:26.443Z,20.53
2023-08-17T21:41:32.036Z,20.56
2023-08-17T21:43:44.084Z,20.54
2023-08-17T21:45:52.256Z,20.57
2023-08-17T21:48:05.635Z,20.51
2023-08-17T21:50:18.232Z,20.53
2023-08-17T21:52:35.149Z,20.53
2023-08-17T21:54:46.082Z,20.56
2023-08-17T21:56:54.356Z,20.43
2023-08-17T21:59:06.798Z,20.37
2023-08-17T22:01:15.445Z,20.40
2023-08-17T22:03:27.629Z,20.37
2023-08-17T22:05:41.865Z,20.29
2023-08-17T22:07:50.068Z,20.34
2023-08-17T22:09:58.571Z,20.37
2023-08-17T22:12:09.933Z,20.32
2023-08-17T22:14:28.243Z,20.27
2023-08-17T22:16:38.489Z,20.26
2023-08-17T22:18:46.861Z,20.19
2023-08-17T22:21:02.132Z,20.16
2023-08-17T22:23:10.296Z,20.16
2023-08-17T22:25:18.645Z,20.05
2023-08-17T22:27:28.822Z,19.99
2023-08-17T22:29:37.374Z,19.96
2023-08-17T22:31:46.361Z,19.99
2023-08-17T22:33:54.488Z,19.90
2023-08-17T22:36:06.602Z,19.87
2023-08-17T22:38:16.011Z,19.83
2023-08-17T22:40:24.198Z,19.80
2023-08-17T22:42:32.518Z,19.70
2023-08-17T22:44:40.857Z,19.73
2023-08-17T22:46:51.266Z,19.85
2023-08-17T22:49:01.165Z,19.76
2023-08-17T22:51:15.245Z,19.83
2023-08-17T22:53:24.822Z,19.84
2023-08-17T22:55:33.154Z,19.90
2023-08-17T22:57:42.189Z,19.88
2023-08-17T22:59:47.735Z,19.76
2023-08-17T23:01:55.844Z,19.71
2023-08-17T23:04:07.374Z,19.61
2023-08-17T23:06:18.594Z,19.58
2023-08-17T23:08:28.947Z,19.52
2023-08-17T23:10:42.833Z,19.49
2023-08-17T23:12:54.672Z,19.46
2023-08-17T23:15:03.029Z,19.51
2023-08-17T23:17:15.010Z,19.49
2023-08-17T23:19:23.311Z,19.52
2023-08-17T23:21:34.807Z,19.45
2023-08-17T23:23:44.415Z,19.47
2023-08-17T23:25:58.699Z,19.44
2023-08-17T23:28:04.815Z,19.36
2023-08-17T23:30:14.533Z,19.32
2023-08-17T23:32:28.347Z,19.38
2023-08-17T23:34:38.628Z,19.34
2023-08-17T23:36:49.453Z,19.28
2023-08-17T23:39:01.931Z,19.26
2023-08-17T23:41:10.589Z,19.24
2023-08-17T23:43:33.701Z,19.20
2023-08-17T23:45:51.882Z,19.22
2023-08-17T23:48:00.322Z,19.25
2023-08-17T23:50:11.489Z,19.29
2023-08-17T23:52:22.508Z,19.19
2023-08-17T23:54:31.502Z,19.11
2023-08-17T23:56:45.540Z,19.13
2023-08-17T23:58:53.812Z,19.11
